createdAt,value
2023-03-19T00:05:12.745Z,174.01
2023-03-19T00:10:44.731Z,176.77
2023-03-19T00:16:16.870Z,176.59
2023-03-19T00:21:48.988Z,178.29
2023-03-19T00:27:20.796Z,180.02
2023-03-19T00:38:22.499Z,180.99
2023-03-19T00:43:54.524Z,181.58
2023-03-19T00:49:26.763Z,182.18
2023-03-19T00:54:58.709Z,184.19
2023-03-19T01:00:30.796Z,184.39
2023-03-19T01:06:02.536Z,186.79
2023-03-19T01:11:34.385Z,186.26
2023-03-19T01:17:06.691Z,187.00
2023-03-19T01:22:38.860Z,189.15
2023-03-19T01:28:11.044Z,191.58
2023-03-19T01:33:43.156Z,191.36
2023-03-19T01:39:15.605Z,191.81
2023-03-19T01:44:47.349Z,192.03
2023-03-19T01:50:19.422Z,193.28
2023-03-19T01:55:51.508Z,192.37
2023-03-19T02:01:23.577Z,193.39
2023-03-19T02:06:55.686Z,191.70
2023-03-19T02:12:27.654Z,192.71
2023-03-19T02:18:00.043Z,193.39
2023-03-19T02:23:32.249Z,192.71
2023-03-19T02:40:03.527Z,196.52
2023-03-19T02:45:34.801Z,197.58
2023-03-19T02:51:06.529Z,198.30
2023-03-19T02:56:38.466Z,197.58
2023-03-19T03:02:10.812Z,197.58
2023-03-19T03:07:42.867Z,198.66
2023-03-19T03:13:14.672Z,197.94
2023-03-19T03:18:46.699Z,196.63
2023-03-19T03:24:18.827Z,197.46
2023-03-19T03:29:50.644Z,196.16
2023-03-19T03:35:22.912Z,198.78
2023-03-19T03:40:54.615Z,199.26
2023-03-19T03:46:26.339Z,200.48
2023-03-19T03:51:58.426Z,199.51
2023-03-19T03:57:30.507Z,200.11
2023-03-19T04:08:32.017Z,194.31
2023-03-19T04:14:03.498Z,196.99
2023-03-19T04:19:35.599Z,191.92
2023-03-19T04:25:07.463Z,193.73
2023-03-19T04:30:40.089Z,195.12
2023-03-19T04:36:12.145Z,197.23
2023-03-19T04:41:44.229Z,196.40
2023-03-19T04:47:16.032Z,196.05
2023-03-19T04:52:48.523Z,192.82
2023-03-19T04:58:20.667Z,192.37
2023-03-19T05:03:53.086Z,193.05
2023-03-19T05:09:25.275Z,192.26
2023-03-19T05:14:57.430Z,191.81
2023-03-19T05:20:29.924Z,191.47
2023-03-19T05:26:01.932Z,187.85
2023-03-19T05:31:33.979Z,188.72
2023-03-19T05:37:06.106Z,190.91
2023-03-19T05:42:38.244Z,190.36
2023-03-19T05:48:10.133Z,190.47
2023-03-19T05:53:42.373Z,191.03
2023-03-19T05:59:14.511Z,191.25
2023-03-19T06:04:46.582Z,191.25
2023-03-19T06:10:18.996Z,189.70
2023-03-19T06:15:51.431Z,191.47
2023-03-19T06:21:23.365Z,187.96
2023-03-19T06:26:55.507Z,187.10
2023-03-19T06:32:28.384Z,186.26
2023-03-19T06:38:00.465Z,186.79
2023-03-19T06:43:32.804Z,185.83
2023-03-19T06:49:05.370Z,185.42
2023-03-19T06:54:38.446Z,183.99
2023-03-19T07:00:09.252Z,184.80
2023-03-19T07:05:41.492Z,184.19
2023-03-19T07:11:13.985Z,183.99
2023-03-19T07:16:46.155Z,181.98
2023-03-19T07:22:18.241Z,182.98
2023-03-19T07:27:50.231Z,180.21
2023-03-19T07:33:22.317Z,179.24
2023-03-19T07:38:54.786Z,180.40
2023-03-19T07:44:26.929Z,175.47
2023-03-19T07:49:59.405Z,173.29
2023-03-19T07:55:31.674Z,172.93
2023-03-19T08:01:03.897Z,170.46
2023-03-19T08:06:36.170Z,167.38
2023-03-19T08:12:08.258Z,164.90
2023-03-19T08:17:40.014Z,163.44
2023-03-19T08:23:11.802Z,162.49
2023-03-19T08:28:43.853Z,159.54
2023-03-19T08:34:15.602Z,156.84
2023-03-19T08:39:47.720Z,155.23
2023-03-19T08:45:20.020Z,153.52
2023-03-19T08:50:52.297Z,151.84
2023-03-19T08:56:24.662Z,151.84
2023-03-19T09:01:57.263Z,149.40
2023-03-19T09:07:29.064Z,147.42
2023-03-19T09:13:00.846Z,147.55
2023-03-19T09:18:32.622Z,147.03
2023-03-19T09:24:04.644Z,146.77
2023-03-19T09:29:36.722Z,145.49
2023-03-19T09:35:08.425Z,146.25
2023-03-19T09:40:40.323Z,144.98
2023-03-19T09:46:12.473Z,145.24
2023-03-19T09:51:44.549Z,144.73
2023-03-19T09:57:16.838Z,142.51
2023-03-19T09:59:29.293Z,144.48
2023-03-19T10:05:01.628Z,144.86
2023-03-19T10:10:34.023Z,141.78
2023-03-19T10:16:06.505Z,141.78
2023-03-19T10:21:38.319Z,141.66
2023-03-19T10:27:10.200Z,139.76
2023-03-19T10:32:43.013Z,137.80
2023-03-19T10:38:14.763Z,137.01
2023-03-19T10:43:46.773Z,136.34
2023-03-19T10:49:19.014Z,134.79
2023-03-19T10:54:51.038Z,134.14
2023-03-19T11:00:23.202Z,134.47
2023-03-19T11:05:55.510Z,133.93
2023-03-19T11:11:28.038Z,132.23
2023-03-19T11:19:21.293Z,133.07
2023-03-19T11:24:53.489Z,132.76
2023-03-19T11:30:25.773Z,130.99
2023-03-19T11:35:57.802Z,129.46
2023-03-19T11:41:30.047Z,128.96
2023-03-19T11:47:02.209Z,127.00
2023-03-19T11:52:34.789Z,123.61
2023-03-19T11:58:09.011Z,120.92
2023-03-19T12:06:02.417Z,121.99
2023-03-19T12:11:33.945Z,119.62
2023-03-19T12:17:06.169Z,118.10
2023-03-19T12:22:37.344Z,113.44
2023-03-19T12:28:09.285Z,113.06
2023-03-19T12:33:41.189Z,111.62
2023-03-19T12:39:13.307Z,111.55
2023-03-19T12:44:45.146Z,111.62
2023-03-19T12:50:17.375Z,109.71
2023-03-19T13:01:20.979Z,112.30
2023-03-19T13:09:14.720Z,115.56
2023-03-19T13:14:46.628Z,115.25
2023-03-19T13:20:18.377Z,113.99
2023-03-19T13:25:50.483Z,113.29
2023-03-19T13:31:22.831Z,113.37
2023-03-19T13:36:54.340Z,113.68
2023-03-19T13:42:26.531Z,113.83
2023-03-19T13:47:58.691Z,114.69
2023-03-19T13:59:00.411Z,114.14
2023-03-19T14:04:32.506Z,114.77
2023-03-19T14:10:04.521Z,114.61
2023-03-19T14:15:36.855Z,115.40
2023-03-19T14:21:12.606Z,113.75
2023-03-19T14:26:40.588Z,114.53
2023-03-19T14:32:12.812Z,115.40
2023-03-19T14:37:44.671Z,115.09
2023-03-19T14:43:17.067Z,113.91
2023-03-19T14:48:49.506Z,113.14
2023-03-19T14:54:21.703Z,113.44
2023-03-19T14:59:53.130Z,113.29
2023-03-19T15:05:25.163Z,113.52
2023-03-19T15:10:57.399Z,114.61
2023-03-19T15:16:29.283Z,115.56
2023-03-19T15:22:00.682Z,116.13
2023-03-19T15:27:32.822Z,116.86
2023-03-19T15:38:35.691Z,116.86
2023-03-19T15:44:07.475Z,116.29
2023-03-19T15:49:39.954Z,116.37
2023-03-19T15:55:12.206Z,115.97
2023-03-19T16:00:44.315Z,116.61
2023-03-19T16:06:16.604Z,116.37
2023-03-19T16:11:49.129Z,117.43
2023-03-19T16:22:51.180Z,117.02
2023-03-19T16:28:23.046Z,117.35
2023-03-19T16:33:54.607Z,117.85
2023-03-19T16:39:26.413Z,118.10
2023-03-19T16:44:58.239Z,118.43
2023-03-19T16:50:30.114Z,118.60
2023-03-19T16:56:01.847Z,119.54
2023-03-19T17:01:33.669Z,119.03
2023-03-19T17:07:05.509Z,119.11
2023-03-19T17:12:37.396Z,119.62
2023-03-19T17:18:09.214Z,119.88
2023-03-19T17:23:40.954Z,121.28
2023-03-19T17:29:12.656Z,121.28
2023-03-19T17:34:44.918Z,122.52
2023-03-19T17:40:17.201Z,122.88
2023-03-19T17:45:49.639Z,122.97
2023-03-19T17:56:51.511Z,124.35
2023-03-19T18:07:54.277Z,125.38
2023-03-19T18:13:26.578Z,125.28
2023-03-19T18:18:58.837Z,125.85
2023-03-19T18:24:30.822Z,126.32
2023-03-19T18:30:02.812Z,125.94
2023-03-19T18:35:35.369Z,126.23
2023-03-19T18:41:07.431Z,127.09
2023-03-19T18:46:40.331Z,126.81
2023-03-19T18:57:52.341Z,127.29
2023-03-19T19:03:14.321Z,128.07
2023-03-19T19:08:46.995Z,129.46
2023-03-19T19:14:18.983Z,130.27
2023-03-19T19:19:51.381Z,129.46
2023-03-19T19:25:23.951Z,129.86
2023-03-19T19:30:56.815Z,131.50
2023-03-19T19:36:29.189Z,131.60
2023-03-19T19:42:01.453Z,132.23
2023-03-19T19:53:02.959Z,135.01
2023-03-19T19:58:34.792Z,134.90
2023-03-19T20:04:06.830Z,134.04
2023-03-19T20:09:39.437Z,134.68
2023-03-19T20:15:11.257Z,134.25
2023-03-19T20:20:43.165Z,132.76
2023-03-19T20:26:15.102Z,133.61
2023-03-19T20:31:46.947Z,132.02
2023-03-19T20:37:19.373Z,131.09
2023-03-19T20:42:51.450Z,131.29
2023-03-19T20:53:53.359Z,128.66
2023-03-19T20:59:25.051Z,127.09
2023-03-19T21:04:57.039Z,124.91
2023-03-19T21:10:29.221Z,123.89
2023-03-19T21:16:01.277Z,121.45
2023-03-19T21:21:33.671Z,119.97
2023-03-19T21:27:05.486Z,121.36
2023-03-19T21:32:37.283Z,120.66
2023-03-19T21:43:39.003Z,120.66
2023-03-19T21:49:11.014Z,120.75
2023-03-19T21:54:42.858Z,120.49
2023-03-19T22:00:15.172Z,120.49
2023-03-19T22:05:47.616Z,122.07
2023-03-19T22:11:19.377Z,122.07
2023-03-19T22:16:52.902Z,122.07
2023-03-19T22:22:23.678Z,123.34
2023-03-19T22:27:56.079Z,123.61
2023-03-19T22:33:27.837Z,123.98
2023-03-19T22:38:59.495Z,125.94
2023-03-19T22:44:32.010Z,126.42
2023-03-19T22:50:04.237Z,126.71
2023-03-19T22:55:37.394Z,125.00
2023-03-19T23:01:08.318Z,127.78
2023-03-19T23:06:40.060Z,128.07
2023-03-19T23:12:11.690Z,128.17
2023-03-19T23:17:43.968Z,126.90
2023-03-19T23:23:16.158Z,130.27
2023-03-19T23:28:48.530Z,130.88
2023-03-19T23:34:21.146Z,128.37
2023-03-19T23:39:53.903Z,128.96
2023-03-19T23:45:25.900Z,132.55
2023-03-19T23:50:57.735Z,130.47
2023-03-19T23:56:29.254Z,132.23
